createdAt,value
2018-06-25T00:02:21.464Z,20.32
2018-06-25T00:04:49.960Z,20.33
2018-06-25T00:07:18.735Z,20.33
2018-06-25T00:09:47.333Z,20.32
2018-06-25T00:12:15.875Z,20.32
2018-06-25T00:14:44.456Z,20.31
2018-06-25T00:17:12.941Z,20.29
2018-06-25T00:19:41.528Z,20.31
2018-06-25T00:22:10.064Z,20.32
2018-06-25T00:24:38.616Z,20.33
2018-06-25T00:27:07.157Z,20.33
2018-06-25T00:29:35.713Z,20.34
2018-06-25T00:32:04.342Z,20.35
2018-06-25T00:34:32.908Z,20.35
2018-06-25T00:37:01.492Z,20.35
2018-06-25T00:39:30.096Z,20.34
2018-06-25T00:41:58.687Z,20.32
2018-06-25T00:44:27.222Z,20.31
2018-06-25T00:46:55.766Z,20.29
2018-06-25T00:49:24.328Z,20.29
2018-06-25T00:51:52.922Z,20.25
2018-06-25T00:54:21.519Z,20.24
2018-06-25T00:56:50.040Z,20.17
2018-06-25T00:59:29.630Z,20.16
2018-06-25T01:01:58.206Z,20.12
2018-06-25T01:04:26.911Z,20.07
2018-06-25T01:06:55.578Z,20.07
2018-06-25T01:09:24.161Z,20.06
2018-06-25T01:11:52.701Z,20.06
2018-06-25T01:14:21.309Z,20.06
2018-06-25T01:16:49.907Z,20.06
2018-06-25T01:19:18.376Z,20.06
2018-06-25T01:21:46.947Z,20.06
2018-06-25T01:24:15.493Z,20.07
2018-06-25T01:26:43.982Z,20.08
2018-06-25T01:29:12.477Z,20.09
2018-06-25T01:31:41.047Z,20.10
2018-06-25T01:34:09.632Z,20.13
2018-06-25T01:36:38.146Z,20.15
2018-06-25T01:39:09.124Z,20.14
2018-06-25T01:41:37.633Z,20.10
2018-06-25T01:44:06.608Z,20.11
2018-06-25T01:46:35.209Z,20.08
2018-06-25T01:49:03.776Z,20.09
2018-06-25T01:51:32.238Z,20.09
2018-06-25T01:54:00.898Z,20.05
2018-06-25T01:56:29.542Z,20.03
2018-06-25T01:58:58.204Z,20.03
2018-06-25T02:01:26.818Z,20.04
2018-06-25T02:03:55.373Z,20.03
2018-06-25T02:06:23.930Z,20.04
2018-06-25T02:08:52.524Z,20.04
2018-06-25T02:11:21.053Z,20.02
2018-06-25T02:13:49.580Z,20.00
2018-06-25T02:16:18.104Z,19.98
2018-06-25T02:18:46.641Z,19.96
2018-06-25T02:21:15.189Z,19.94
2018-06-25T02:23:43.724Z,19.92
2018-06-25T02:26:12.294Z,19.88
2018-06-25T02:28:40.833Z,19.87
2018-06-25T02:31:09.484Z,19.88
2018-06-25T02:33:38.022Z,19.87
2018-06-25T02:36:06.834Z,19.88
2018-06-25T02:38:35.531Z,19.89
2018-06-25T02:41:04.100Z,19.90
2018-06-25T02:43:34.645Z,19.92
2018-06-25T02:46:04.757Z,19.94
2018-06-25T02:48:34.972Z,19.94
2018-06-25T02:51:05.089Z,19.94
2018-06-25T02:53:33.800Z,19.92
2018-06-25T02:56:02.503Z,19.92
2018-06-25T02:58:31.180Z,19.92
2018-06-25T03:00:59.766Z,19.88
2018-06-25T03:03:28.351Z,19.84
2018-06-25T03:05:56.905Z,19.79
2018-06-25T03:08:25.533Z,19.77
2018-06-25T03:10:54.073Z,19.76
2018-06-25T03:13:22.658Z,19.74
2018-06-25T03:15:51.252Z,19.74
2018-06-25T03:18:19.878Z,19.75
2018-06-25T03:20:48.418Z,19.76
2018-06-25T03:23:17.051Z,19.75
2018-06-25T03:25:45.686Z,19.74
2018-06-25T03:28:14.294Z,19.72
2018-06-25T03:30:42.835Z,19.69
2018-06-25T03:33:11.813Z,19.70
2018-06-25T03:35:40.497Z,19.72
2018-06-25T03:38:09.026Z,19.71
2018-06-25T03:40:37.767Z,19.68
2018-06-25T03:43:06.566Z,19.65
2018-06-25T03:45:35.266Z,19.60
2018-06-25T03:48:03.801Z,19.53
2018-06-25T03:50:33.342Z,19.52
2018-06-25T03:53:02.163Z,19.53
2018-06-25T03:55:30.766Z,19.53
2018-06-25T03:57:59.325Z,19.56
2018-06-25T04:00:27.900Z,19.59
2018-06-25T04:02:56.479Z,19.61
2018-06-25T04:05:25.121Z,19.64
2018-06-25T04:07:53.723Z,19.65
2018-06-25T04:10:22.248Z,19.67
2018-06-25T04:12:50.821Z,19.66
2018-06-25T04:15:19.477Z,19.63
2018-06-25T04:17:48.018Z,19.65
2018-06-25T04:20:16.681Z,19.64
2018-06-25T04:22:45.213Z,19.66
2018-06-25T04:25:13.819Z,19.71
2018-06-25T04:27:42.418Z,19.73
2018-06-25T04:30:11.043Z,19.73
2018-06-25T04:32:39.740Z,19.75
2018-06-25T04:35:08.497Z,19.77
2018-06-25T04:37:37.138Z,19.76
2018-06-25T04:40:05.789Z,19.76
2018-06-25T04:42:34.319Z,19.77
2018-06-25T04:45:03.004Z,19.78
2018-06-25T04:47:31.586Z,19.78
2018-06-25T04:50:00.088Z,19.79
2018-06-25T04:52:28.648Z,19.81
2018-06-25T04:54:57.274Z,19.84
2018-06-25T04:57:25.930Z,19.85
2018-06-25T04:59:54.444Z,19.86
2018-06-25T05:02:23.064Z,19.87
2018-06-25T05:04:51.732Z,19.87
2018-06-25T05:07:20.311Z,19.84
2018-06-25T05:09:48.888Z,19.83
2018-06-25T05:12:17.466Z,19.81
2018-06-25T05:14:45.995Z,19.80
2018-06-25T05:17:14.722Z,19.78
2018-06-25T05:19:43.515Z,19.78
2018-06-25T05:22:12.498Z,19.81
2018-06-25T05:24:41.430Z,19.81
2018-06-25T05:27:10.237Z,19.85
2018-06-25T05:29:38.887Z,19.88
2018-06-25T05:32:07.581Z,19.90
2018-06-25T05:34:36.267Z,19.90
2018-06-25T05:37:05.772Z,19.90
2018-06-25T05:39:34.502Z,19.91
2018-06-25T05:42:03.972Z,19.90
2018-06-25T05:44:32.523Z,19.89
2018-06-25T05:47:01.627Z,19.90
2018-06-25T05:49:30.188Z,19.90
2018-06-25T05:51:59.260Z,19.94
2018-06-25T05:54:28.112Z,19.93
2018-06-25T05:56:56.748Z,19.94
2018-06-25T05:59:25.352Z,19.97
2018-06-25T06:01:54.273Z,20.00
2018-06-25T06:04:22.862Z,19.98
2018-06-25T06:06:51.436Z,19.97
2018-06-25T06:09:20.156Z,19.97
2018-06-25T06:11:48.966Z,19.98
2018-06-25T06:14:17.931Z,20.01
2018-06-25T06:16:46.759Z,20.06
2018-06-25T06:19:15.438Z,20.08
2018-06-25T06:21:44.069Z,20.12
2018-06-25T06:24:12.662Z,20.17
2018-06-25T06:26:41.149Z,20.19
2018-06-25T06:29:09.692Z,20.21
2018-06-25T06:31:38.279Z,20.22
2018-06-25T06:34:07.320Z,20.25
2018-06-25T06:36:35.921Z,20.27
2018-06-25T06:39:06.927Z,20.28
2018-06-25T06:41:35.727Z,20.32
2018-06-25T06:44:04.644Z,20.37
2018-06-25T06:46:33.477Z,20.43
2018-06-25T06:49:02.300Z,20.48
2018-06-25T06:51:31.255Z,20.54
2018-06-25T06:53:59.841Z,20.61
2018-06-25T06:56:28.458Z,20.62
2018-06-25T06:58:57.120Z,20.58
2018-06-25T07:01:25.808Z,20.59
2018-06-25T07:03:55.039Z,20.59
2018-06-25T07:06:23.734Z,20.68
2018-06-25T07:08:52.396Z,20.78
2018-06-25T07:11:21.182Z,20.86
2018-06-25T07:13:49.840Z,20.89
2018-06-25T07:16:18.629Z,20.91
2018-06-25T07:18:47.273Z,20.90
2018-06-25T07:21:15.967Z,20.90
2018-06-25T07:23:44.595Z,20.95
2018-06-25T07:26:13.514Z,20.97
2018-06-25T07:28:42.096Z,21.01
2018-06-25T07:31:10.717Z,21.04
2018-06-25T07:33:39.264Z,21.07
2018-06-25T07:36:07.842Z,21.11
2018-06-25T07:38:36.348Z,21.16
2018-06-25T07:41:05.318Z,21.22
2018-06-25T07:43:34.050Z,21.25
2018-06-25T07:46:02.687Z,21.29
2018-06-25T07:48:31.440Z,21.32
2018-06-25T07:51:00.041Z,21.35
2018-06-25T07:53:28.831Z,21.37
2018-06-25T07:55:57.388Z,21.37
2018-06-25T07:58:25.966Z,21.34
2018-06-25T08:00:54.509Z,21.32
2018-06-25T08:03:23.115Z,21.34
2018-06-25T08:05:51.692Z,21.38
2018-06-25T08:08:20.375Z,21.52
2018-06-25T08:10:48.926Z,21.61
2018-06-25T08:13:17.525Z,21.61
2018-06-25T08:15:46.018Z,21.60
2018-06-25T08:18:14.592Z,21.54
2018-06-25T08:20:43.036Z,21.46
2018-06-25T08:23:11.543Z,21.47
2018-06-25T08:25:40.063Z,21.61
2018-06-25T08:28:08.620Z,21.71
2018-06-25T08:30:37.062Z,21.81
2018-06-25T08:33:06.461Z,21.84
2018-06-25T08:35:34.898Z,21.83
2018-06-25T08:38:03.486Z,21.81
2018-06-25T08:40:32.006Z,21.77
2018-06-25T08:43:00.535Z,21.78
2018-06-25T08:45:29.015Z,21.78
2018-06-25T08:47:57.571Z,21.84
2018-06-25T08:50:26.039Z,21.94
2018-06-25T08:52:54.541Z,22.08
2018-06-25T08:55:23.031Z,22.12
2018-06-25T08:57:51.686Z,22.32
2018-06-25T09:00:20.191Z,22.61
2018-06-25T09:02:48.769Z,23.07
2018-06-25T09:05:17.269Z,23.50
2018-06-25T09:07:45.771Z,23.65
2018-06-25T09:10:14.298Z,23.56
2018-06-25T09:12:42.815Z,23.49
2018-06-25T09:15:11.344Z,23.39
2018-06-25T09:17:39.834Z,23.16
2018-06-25T09:20:08.404Z,23.05
2018-06-25T09:22:36.937Z,23.02
2018-06-25T09:25:05.418Z,23.10
2018-06-25T09:27:39.195Z,23.27
2018-06-25T09:30:07.800Z,23.62
2018-06-25T09:32:36.379Z,24.32
2018-06-25T09:35:05.013Z,25.03
2018-06-25T09:37:33.539Z,25.52
2018-06-25T09:40:02.024Z,26.00
2018-06-25T09:42:30.523Z,26.44
2018-06-25T09:44:58.982Z,26.80
2018-06-25T09:47:27.549Z,27.48
2018-06-25T09:49:56.118Z,27.98
2018-06-25T09:52:24.633Z,28.20
2018-06-25T09:54:53.410Z,28.25
2018-06-25T09:57:21.869Z,28.13
2018-06-25T09:59:50.447Z,27.94
2018-06-25T10:02:19.056Z,27.68
2018-06-25T10:04:47.612Z,27.38
2018-06-25T10:07:16.184Z,27.10
2018-06-25T10:09:44.888Z,26.79
2018-06-25T10:12:13.446Z,26.50
2018-06-25T10:14:42.095Z,26.32
2018-06-25T10:17:10.735Z,26.24
2018-06-25T10:19:39.452Z,26.24
2018-06-25T10:22:08.082Z,26.18
2018-06-25T10:24:36.753Z,26.11
2018-06-25T10:27:05.340Z,26.00
2018-06-25T10:29:34.031Z,25.88
2018-06-25T10:32:02.830Z,25.71
2018-06-25T10:34:31.554Z,25.53
2018-06-25T10:37:00.246Z,25.39
2018-06-25T10:39:29.022Z,25.22
2018-06-25T10:41:58.457Z,25.10
2018-06-25T10:44:27.526Z,24.97
2018-06-25T10:46:57.550Z,24.84
2018-06-25T10:49:26.162Z,24.85
2018-06-25T10:51:55.093Z,25.00
2018-06-25T10:54:23.849Z,25.22
2018-06-25T10:56:53.297Z,25.42
2018-06-25T10:59:22.153Z,25.51
2018-06-25T11:01:50.787Z,25.49
2018-06-25T11:04:19.501Z,25.38
2018-06-25T11:06:48.411Z,25.30
2018-06-25T11:09:17.027Z,25.20
2018-06-25T11:11:46.405Z,25.11
2018-06-25T11:14:15.036Z,25.04
2018-06-25T11:16:43.684Z,24.99
2018-06-25T11:19:12.573Z,24.88
2018-06-25T11:21:41.271Z,24.85
2018-06-25T11:24:10.033Z,24.88
2018-06-25T11:26:38.702Z,24.93
2018-06-25T11:29:07.332Z,25.00
2018-06-25T11:31:35.977Z,25.05
2018-06-25T11:34:04.783Z,25.11
2018-06-25T11:36:33.400Z,25.21
2018-06-25T11:39:02.078Z,25.30
2018-06-25T11:41:30.788Z,25.33
2018-06-25T11:43:59.439Z,25.32
2018-06-25T11:46:27.960Z,25.29
2018-06-25T11:48:56.684Z,25.25
2018-06-25T11:51:25.879Z,25.24
2018-06-25T11:53:54.668Z,25.23
2018-06-25T11:56:23.426Z,25.30
2018-06-25T11:58:51.983Z,25.49
2018-06-25T12:01:20.548Z,25.70
2018-06-25T12:03:49.129Z,25.92
2018-06-25T12:06:17.748Z,26.08
2018-06-25T12:08:46.270Z,26.22
2018-06-25T12:11:14.756Z,26.32
2018-06-25T12:13:43.318Z,26.51
2018-06-25T12:16:11.915Z,26.70
2018-06-25T12:18:40.369Z,26.85
2018-06-25T12:21:09.060Z,27.03
2018-06-25T12:23:38.592Z,27.16
2018-06-25T12:26:07.208Z,27.22
2018-06-25T12:28:35.823Z,27.35
2018-06-25T12:31:04.441Z,27.52
2018-06-25T12:33:33.079Z,27.69
2018-06-25T12:36:01.807Z,27.78
2018-06-25T12:38:30.356Z,27.85
2018-06-25T12:40:59.666Z,27.82
2018-06-25T12:43:29.627Z,27.73
2018-06-25T12:45:59.160Z,27.64
2018-06-25T12:48:27.827Z,27.67
2018-06-25T12:50:56.602Z,27.76
2018-06-25T12:53:25.360Z,27.89
2018-06-25T12:55:54.097Z,28.00
2018-06-25T12:58:24.873Z,28.11
2018-06-25T13:00:54.230Z,28.23
2018-06-25T13:03:22.795Z,28.26
2018-06-25T13:05:55.317Z,28.29
2018-06-25T13:08:24.074Z,28.14
2018-06-25T13:10:53.489Z,28.00
2018-06-25T13:13:22.276Z,28.11
2018-06-25T13:15:51.233Z,28.28
2018-06-25T13:18:20.047Z,28.37
2018-06-25T13:20:48.873Z,28.52
2018-06-25T13:23:17.610Z,28.69
2018-06-25T13:25:46.508Z,28.78
2018-06-25T13:28:15.877Z,28.78
2018-06-25T13:30:44.543Z,28.87
2018-06-25T13:33:13.157Z,29.00
2018-06-25T13:35:41.900Z,29.08
2018-06-25T13:38:10.780Z,29.19
2018-06-25T13:40:39.434Z,29.18
2018-06-25T13:43:08.460Z,29.13
2018-06-25T13:45:37.155Z,29.02
2018-06-25T13:48:05.753Z,28.91
2018-06-25T13:50:34.376Z,28.76
2018-06-25T13:53:02.887Z,28.67
2018-06-25T13:55:31.545Z,28.71
2018-06-25T13:58:00.205Z,28.73
2018-06-25T14:00:28.744Z,28.64
2018-06-25T14:02:57.344Z,28.63
2018-06-25T14:05:26.072Z,28.57
2018-06-25T14:07:55.022Z,28.56
2018-06-25T14:10:23.609Z,28.58
2018-06-25T14:12:52.182Z,28.69
2018-06-25T14:15:20.917Z,28.84
2018-06-25T14:17:49.503Z,28.86
2018-06-25T14:20:18.131Z,28.78
2018-06-25T14:22:46.631Z,28.59
2018-06-25T14:25:15.210Z,28.47
2018-06-25T14:27:48.996Z,28.38
2018-06-25T14:30:22.686Z,28.33
2018-06-25T14:32:55.337Z,28.38
2018-06-25T14:35:24.006Z,28.48
2018-06-25T14:37:52.560Z,28.37
2018-06-25T14:40:21.257Z,28.20
2018-06-25T14:42:49.823Z,28.04
2018-06-25T14:45:20.591Z,27.87
2018-06-25T14:47:49.196Z,27.77
2018-06-25T14:50:17.935Z,27.66
2018-06-25T14:52:46.640Z,27.64
2018-06-25T14:55:16.399Z,27.66
2018-06-25T14:57:45.068Z,27.65
2018-06-25T15:00:20.239Z,27.62
2018-06-25T15:02:51.252Z,27.57
2018-06-25T15:05:19.963Z,27.58
2018-06-25T15:07:48.547Z,27.61
2018-06-25T15:10:17.105Z,27.61
2018-06-25T15:12:46.738Z,27.62
2018-06-25T15:15:17.318Z,27.66
2018-06-25T15:17:47.477Z,27.71
2018-06-25T15:20:16.780Z,27.76
2018-06-25T15:22:47.350Z,27.78
2018-06-25T15:25:16.816Z,27.77
2018-06-25T15:27:45.352Z,27.82
2018-06-25T15:30:15.264Z,27.93
2018-06-25T15:32:44.090Z,27.98
2018-06-25T15:35:13.581Z,27.95
2018-06-25T15:37:46.453Z,27.91
2018-06-25T15:40:15.657Z,27.89
2018-06-25T15:42:44.520Z,27.88
2018-06-25T15:45:13.171Z,27.97
2018-06-25T15:47:42.816Z,28.03
2018-06-25T15:50:11.604Z,28.08
2018-06-25T15:52:40.322Z,28.12
2018-06-25T15:55:09.073Z,28.08
2018-06-25T15:57:37.665Z,28.00
2018-06-25T16:00:06.569Z,27.99
2018-06-25T16:02:35.319Z,28.04
2018-06-25T16:05:03.814Z,28.10
2018-06-25T16:07:32.480Z,28.10
2018-06-25T16:10:01.039Z,28.02
2018-06-25T16:12:29.725Z,27.83
2018-06-25T16:14:58.351Z,27.70
2018-06-25T16:17:27.035Z,27.62
2018-06-25T16:19:55.827Z,27.57
2018-06-25T16:22:24.686Z,27.52
2018-06-25T16:24:53.214Z,27.49
2018-06-25T16:27:21.924Z,27.43
2018-06-25T16:29:50.555Z,27.40
2018-06-25T16:32:20.105Z,27.43
2018-06-25T16:34:49.631Z,27.50
2018-06-25T16:37:20.611Z,27.55
2018-06-25T16:39:49.486Z,27.49
2018-06-25T16:42:18.105Z,27.43
2018-06-25T16:44:46.968Z,27.36
2018-06-25T16:47:16.241Z,27.30
2018-06-25T16:49:45.505Z,27.27
2018-06-25T16:52:14.552Z,27.17
2018-06-25T16:54:43.352Z,27.08
2018-06-25T16:57:13.099Z,27.00
2018-06-25T16:59:42.069Z,26.93
2018-06-25T17:02:11.459Z,26.86
2018-06-25T17:04:40.121Z,26.80
2018-06-25T17:07:08.753Z,26.72
2018-06-25T17:09:37.678Z,26.63
2018-06-25T17:12:06.593Z,26.56
2018-06-25T17:14:35.388Z,26.51
2018-06-25T17:17:05.166Z,26.48
2018-06-25T17:19:33.798Z,26.46
2018-06-25T17:22:02.694Z,26.40
2018-06-25T17:24:31.260Z,26.38
2018-06-25T17:27:00.275Z,26.40
2018-06-25T17:29:29.091Z,26.40
2018-06-25T17:31:57.990Z,26.40
2018-06-25T17:34:26.617Z,26.39
2018-06-25T17:36:55.445Z,26.36
2018-06-25T17:39:24.089Z,26.36
2018-06-25T17:41:53.707Z,26.30
2018-06-25T17:46:58.498Z,26.28
2018-06-25T17:49:27.356Z,26.22
2018-06-25T17:51:56.658Z,26.18
2018-06-25T17:54:26.267Z,26.15
2018-06-25T17:56:55.441Z,26.10
2018-06-25T17:59:24.506Z,26.03
2018-06-25T18:01:54.320Z,25.96
2018-06-25T18:04:23.689Z,25.91
2018-06-25T18:06:52.974Z,25.88
2018-06-25T18:09:23.844Z,25.85
2018-06-25T18:11:52.568Z,25.82
2018-06-25T18:14:21.326Z,25.77
2018-06-25T18:16:50.072Z,25.72
2018-06-25T18:19:18.761Z,25.69
2018-06-25T18:21:47.443Z,25.63
2018-06-25T18:24:16.235Z,25.59
2018-06-25T18:26:45.085Z,25.55
2018-06-25T18:29:13.882Z,25.51
2018-06-25T18:31:42.470Z,25.48
2018-06-25T18:34:11.070Z,25.41
2018-06-25T18:36:39.561Z,25.37
2018-06-25T18:39:10.899Z,25.34
2018-06-25T18:41:40.032Z,25.32
2018-06-25T18:44:08.711Z,25.28
2018-06-25T18:46:37.581Z,25.23
2018-06-25T18:49:06.454Z,25.19
2018-06-25T18:51:35.172Z,25.15
2018-06-25T18:54:03.888Z,25.11
2018-06-25T18:56:32.640Z,25.07
2018-06-25T18:59:01.441Z,25.02
2018-06-25T19:01:30.122Z,24.96
2018-06-25T19:03:58.799Z,24.91
2018-06-25T19:06:27.462Z,24.85
2018-06-25T19:08:56.229Z,24.79
2018-06-25T19:11:25.290Z,24.73
2018-06-25T19:13:54.496Z,24.71
2018-06-25T19:16:23.172Z,24.66
2018-06-25T19:18:51.980Z,24.62
2018-06-25T19:21:20.652Z,24.54
2018-06-25T19:23:49.705Z,24.48
2018-06-25T19:26:18.562Z,24.40
2018-06-25T19:28:47.753Z,24.33
2018-06-25T19:31:16.889Z,24.26
2018-06-25T19:33:45.664Z,24.17
2018-06-25T19:36:14.406Z,24.10
2018-06-25T19:38:42.963Z,24.02
2018-06-25T19:41:11.818Z,23.97
2018-06-25T19:43:40.433Z,23.89
2018-06-25T19:46:08.987Z,23.82
2018-06-25T19:48:37.987Z,23.75
2018-06-25T19:51:06.825Z,23.69
2018-06-25T19:53:35.697Z,23.62
2018-06-25T19:56:04.729Z,23.56
2018-06-25T19:58:33.594Z,23.50
2018-06-25T20:01:02.442Z,23.44
2018-06-25T20:03:31.393Z,23.38
2018-06-25T20:06:00.199Z,23.32
2018-06-25T20:08:28.946Z,23.26
2018-06-25T20:10:57.665Z,23.20
2018-06-25T20:13:26.464Z,23.13
2018-06-25T20:15:55.171Z,23.08
2018-06-25T20:18:23.820Z,23.03
2018-06-25T20:20:52.517Z,22.97
2018-06-25T20:23:21.169Z,22.89
2018-06-25T20:25:50.637Z,22.85
2018-06-25T20:28:19.276Z,22.79
2018-06-25T20:30:48.010Z,22.74
2018-06-25T20:33:16.758Z,22.70
2018-06-25T20:35:45.708Z,22.64
2018-06-25T20:38:14.398Z,22.59
2018-06-25T20:40:43.059Z,22.54
2018-06-25T20:43:11.815Z,22.50
2018-06-25T20:45:40.531Z,22.45
2018-06-25T20:48:09.419Z,22.40
2018-06-25T20:50:38.246Z,22.36
2018-06-25T20:53:07.215Z,22.31
2018-06-25T20:55:36.119Z,22.27
2018-06-25T20:58:04.920Z,22.23
2018-06-25T21:00:33.700Z,22.19
2018-06-25T21:03:02.562Z,22.14
2018-06-25T21:05:31.231Z,22.10
2018-06-25T21:08:00.034Z,22.05
2018-06-25T21:10:28.714Z,22.00
2018-06-25T21:12:57.355Z,21.97
2018-06-25T21:15:26.101Z,21.93
2018-06-25T21:17:54.639Z,21.89
2018-06-25T21:20:23.535Z,21.87
2018-06-25T21:22:52.108Z,21.83
2018-06-25T21:25:20.941Z,21.81
2018-06-25T21:27:50.002Z,21.75
2018-06-25T21:30:18.968Z,21.72
2018-06-25T21:32:47.728Z,21.68
2018-06-25T21:35:16.533Z,21.67
2018-06-25T21:37:45.420Z,21.63
2018-06-25T21:40:14.292Z,21.59
2018-06-25T21:42:43.145Z,21.55
2018-06-25T21:45:12.421Z,21.53
2018-06-25T21:47:41.219Z,21.50
2018-06-25T21:50:10.284Z,21.49
2018-06-25T21:52:39.192Z,21.44
2018-06-25T21:55:08.023Z,21.42
2018-06-25T21:57:36.978Z,21.38
2018-06-25T22:00:09.681Z,21.35
2018-06-25T22:02:38.689Z,21.30
2018-06-25T22:05:08.147Z,21.28
2018-06-25T22:07:36.974Z,21.25
2018-06-25T22:10:05.974Z,21.21
2018-06-25T22:12:34.734Z,21.19
2018-06-25T22:15:04.071Z,21.15
2018-06-25T22:17:32.836Z,21.13
2018-06-25T22:20:01.637Z,21.09
2018-06-25T22:22:30.305Z,21.06
2018-06-25T22:24:59.197Z,21.03
2018-06-25T22:27:27.959Z,21.00
2018-06-25T22:29:56.694Z,20.99
2018-06-25T22:32:25.391Z,20.95
2018-06-25T22:34:54.048Z,20.92
2018-06-25T22:37:22.527Z,20.89
2018-06-25T22:39:51.064Z,20.85
2018-06-25T22:42:19.631Z,20.81
2018-06-25T22:44:48.657Z,20.77
2018-06-25T22:47:17.292Z,20.75
2018-06-25T22:49:45.954Z,20.68
2018-06-25T22:52:14.560Z,20.66
2018-06-25T22:54:43.143Z,20.63
2018-06-25T22:57:11.950Z,20.59
2018-06-25T22:59:40.851Z,20.56
2018-06-25T23:02:09.533Z,20.53
2018-06-25T23:04:38.080Z,20.49
2018-06-25T23:07:06.905Z,20.47
2018-06-25T23:09:35.543Z,20.42
2018-06-25T23:12:04.149Z,20.39
2018-06-25T23:14:32.825Z,20.37
2018-06-25T23:17:01.449Z,20.34
2018-06-25T23:19:29.983Z,20.32
2018-06-25T23:21:58.597Z,20.27
2018-06-25T23:24:27.138Z,20.23
2018-06-25T23:26:55.730Z,20.21
2018-06-25T23:29:24.360Z,20.17
2018-06-25T23:31:52.994Z,20.15
2018-06-25T23:34:21.463Z,20.14
2018-06-25T23:36:49.976Z,20.12
2018-06-25T23:39:18.537Z,20.08
2018-06-25T23:41:47.142Z,20.07
2018-06-25T23:44:15.614Z,20.03
2018-06-25T23:46:44.167Z,20.02
2018-06-25T23:49:12.869Z,20.00
2018-06-25T23:51:41.483Z,19.96
2018-06-25T23:54:10.219Z,19.93
2018-06-25T23:56:38.834Z,19.90
2018-06-25T23:59:07.367Z,19.89
